Time;durP1;ratioP1;P1;durP2;ratioP2;P2;SDS_P1;SDS_P2;PMS_P1;PMS_P2;Temp;Humidity;BMP_temperature;BMP_pressure;BME280_temperature;BME280_humidity;BME280_pressure;Samples;Min_cycle;Max_cycle;Signal;HPM_P1;HPM_P2
2023/06/15 00:02:17;;;;;;;4.77;4.00;;;20.30;74.10;;;;;;5056071;28;20455;-75
2023/06/15 00:04:44;;;;;;;5.83;4.60;;;20.30;75.20;;;;;;5060172;28;20471;-77
2023/06/15 00:07:11;;;;;;;9.03;4.10;;;20.20;74.70;;;;;;5053829;28;20510;-77
2023/06/15 00:09:39;;;;;;;4.00;3.70;;;20.10;75.10;;;;;;5062881;28;20474;-77
2023/06/15 00:12:09;;;;;;;3.80;3.50;;;20.10;75.20;;;;;;5072497;28;20473;-78
2023/06/15 00:14:36;;;;;;;6.63;4.20;;;20.10;75.30;;;;;;5071410;28;20473;-76
2023/06/15 00:17:04;;;;;;;4.53;4.13;;;20.10;76.30;;;;;;5063748;28;20479;-76
2023/06/15 00:19:33;;;;;;;3.93;3.63;;;20.10;75.60;;;;;;5074881;28;20473;-79
2023/06/15 00:22:00;;;;;;;4.30;4.00;;;20.10;75.80;;;;;;5074629;28;20462;-78
2023/06/15 00:24:27;;;;;;;7.53;4.23;;;20.00;75.90;;;;;;5075012;28;20486;-78
2023/06/15 00:26:54;;;;;;;4.10;3.80;;;20.00;76.00;;;;;;5056445;28;20475;-78
2023/06/15 00:29:21;;;;;;;5.80;4.43;;;19.90;76.00;;;;;;5055625;28;20525;-78
2023/06/15 00:31:48;;;;;;;5.20;3.73;;;19.90;77.00;;;;;;5055746;28;20525;-77
2023/06/15 00:34:15;;;;;;;7.30;4.50;;;19.90;76.30;;;;;;5055584;28;20466;-76
2023/06/15 00:36:43;;;;;;;4.77;3.90;;;19.90;76.50;;;;;;5055676;28;20463;-76
2023/06/15 00:39:10;;;;;;;6.20;4.00;;;19.80;76.70;;;;;;5055549;28;20869;-78
2023/06/15 00:41:44;;;;;;;6.77;4.67;;;19.70;77.10;;;;;;5055149;28;20566;-78
2023/06/15 00:44:12;;;;;;;6.60;4.20;;;19.70;77.30;;;;;;5053402;28;20451;-79
2023/06/15 00:46:40;;;;;;;5.53;3.93;;;19.70;77.50;;;;;;5054244;28;20471;-78
2023/06/15 00:49:08;;;;;;;4.00;3.70;;;19.60;77.70;;;;;;5053550;28;20474;-78
2023/06/15 00:51:38;;;;;;;6.13;4.30;;;19.60;77.90;;;;;;5053901;28;20466;-78
2023/06/15 00:54:07;;;;;;;4.83;4.40;;;19.60;78.20;;;;;;5053130;28;20491;-78
2023/06/15 00:56:35;;;;;;;5.03;4.63;;;19.50;78.20;;;;;;5053553;28;20495;-77
2023/06/15 00:59:02;;;;;;;5.63;3.87;;;19.50;78.60;;;;;;5053085;28;20472;-77
2023/06/15 01:01:29;;;;;;;5.47;4.40;;;19.50;78.70;;;;;;5053627;28;20475;-77
2023/06/15 01:03:59;;;;;;;4.37;4.00;;;19.40;78.80;;;;;;5053515;28;20471;-77
2023/06/15 01:06:31;;;;;;;7.10;3.90;;;19.40;79.10;;;;;;5055709;28;20463;-78
2023/06/15 01:09:01;;;;;;;5.90;4.77;;;19.30;79.20;;;;;;5055046;28;20536;-78
2023/06/15 01:11:31;;;;;;;8.67;5.00;;;19.30;79.40;;;;;;5055351;28;20532;-78
2023/06/15 01:13:58;;;;;;;4.50;4.10;;;19.20;79.70;;;;;;5053670;28;20544;-78
2023/06/15 01:16:31;;;;;;;5.33;4.90;;;19.20;79.90;;;;;;5054478;28;20463;-77
2023/06/15 01:18:59;;;;;;;5.07;4.57;;;19.20;80.30;;;;;;5054534;28;21107;-77
2023/06/15 01:21:28;;;;;;;4.63;4.13;;;19.10;80.40;;;;;;5052919;28;20459;-78
2023/06/15 01:24:08;;;;;;;5.47;4.10;;;19.10;80.60;;;;;;5053129;28;20467;-77
2023/06/15 01:26:38;;;;;;;5.10;4.70;;;19.00;80.70;;;;;;5052687;28;20473;-77
2023/06/15 01:29:08;;;;;;;4.77;4.00;;;19.00;80.90;;;;;;5052712;28;20475;-77
2023/06/15 01:31:35;;;;;;;4.97;4.10;;;19.00;80.90;;;;;;5053185;28;20459;-77
2023/06/15 01:34:02;;;;;;;7.43;4.27;;;19.00;81.10;;;;;;5052671;28;20514;-77
2023/06/15 01:36:29;;;;;;;4.47;4.17;;;18.90;81.50;;;;;;5054419;28;20467;-78
2023/06/15 01:38:58;;;;;;;5.80;4.17;;;18.90;81.70;;;;;;5054333;28;20562;-79
2023/06/15 01:41:26;;;;;;;5.07;4.17;;;18.80;81.80;;;;;;5054920;28;20549;-77
2023/06/15 01:43:57;;;;;;;4.17;3.77;;;18.70;81.90;;;;;;5054592;28;20471;-76
2023/06/15 01:46:27;;;;;;;5.17;4.70;;;18.80;82.30;;;;;;5054671;28;20451;-77
2023/06/15 01:48:54;;;;;;;5.40;4.67;;;18.70;82.50;;;;;;5054732;28;20475;-77
2023/06/15 01:51:23;;;;;;;4.60;4.17;;;18.60;82.70;;;;;;5054229;28;20537;-78
2023/06/15 01:53:51;;;;;;;4.00;3.60;;;18.60;82.80;;;;;;5054578;28;20987;-78
2023/06/15 01:56:18;;;;;;;4.23;3.67;;;18.60;83.10;;;;;;5053669;28;20551;-78
2023/06/15 01:58:46;;;;;;;7.60;4.70;;;18.50;83.30;;;;;;5054178;28;20848;-78
2023/06/15 02:01:14;;;;;;;5.00;4.57;;;18.50;83.50;;;;;;5054007;28;20467;-79
2023/06/15 02:03:41;;;;;;;3.73;3.43;;;18.40;83.90;;;;;;5054715;28;20467;-78
2023/06/15 02:06:08;;;;;;;4.70;4.27;;;18.40;84.00;;;;;;5053645;28;21015;-79
2023/06/15 02:08:36;;;;;;;4.43;4.03;;;18.30;84.10;;;;;;5054481;28;20475;-79
2023/06/15 02:11:03;;;;;;;4.40;4.00;;;18.30;84.40;;;;;;5054160;28;20475;-76
2023/06/15 02:13:30;;;;;;;5.50;4.63;;;18.20;84.80;;;;;;5053926;28;20552;-79
2023/06/15 02:15:57;;;;;;;5.63;4.53;;;18.20;85.20;;;;;;5053394;28;20484;-78
2023/06/15 02:18:30;;;;;;;5.37;4.17;;;18.10;85.40;;;;;;5053426;28;20546;-78
2023/06/15 02:20:57;;;;;;;4.63;4.13;;;18.10;85.50;;;;;;5054248;28;20806;-77
2023/06/15 02:23:25;;;;;;;5.20;4.80;;;18.10;85.90;;;;;;5053360;28;20463;-78
2023/06/15 02:25:52;;;;;;;4.33;3.97;;;18.10;85.80;;;;;;5054113;28;20537;-78
2023/06/15 02:28:19;;;;;;;4.23;3.93;;;18.10;85.90;;;;;;5064422;28;20554;-77
2023/06/15 02:30:48;;;;;;;5.73;4.73;;;18.10;86.00;;;;;;5072250;28;20463;-78
2023/06/15 02:33:15;;;;;;;5.17;4.67;;;18.10;86.20;;;;;;5060881;28;20471;-78
2023/06/15 02:35:48;;;;;;;4.80;4.40;;;18.00;86.20;;;;;;5071840;28;20773;-77
2023/06/15 02:38:15;;;;;;;4.60;3.83;;;18.00;86.40;;;;;;5073336;28;20466;-78
2023/06/15 02:40:42;;;;;;;4.17;3.83;;;18.00;86.60;;;;;;5073992;28;20470;-77
2023/06/15 02:43:10;;;;;;;5.20;3.80;;;18.00;86.80;;;;;;5073409;28;20466;-77
2023/06/15 02:45:37;;;;;;;4.80;4.30;;;18.00;86.80;;;;;;5074177;28;20474;-78
2023/06/15 02:48:05;;;;;;;5.27;4.10;;;18.00;87.10;;;;;;5073108;28;20561;-77
2023/06/15 02:50:32;;;;;;;4.50;4.10;;;17.90;87.40;;;;;;5073004;28;20466;-78
2023/06/15 02:53:00;;;;;;;4.50;4.10;;;17.90;87.60;;;;;;5072841;28;20490;-76
2023/06/15 02:55:27;;;;;;;4.80;4.30;;;17.90;87.80;;;;;;5073011;28;20470;-76
2023/06/15 02:57:54;;;;;;;5.50;4.43;;;17.90;88.20;;;;;;5072290;28;20490;-78
2023/06/15 03:00:23;;;;;;;5.27;3.73;;;17.90;88.50;;;;;;5073348;28;20543;-78
2023/06/15 03:02:53;;;;;;;6.37;5.37;;;17.90;88.50;;;;;;5074012;28;20962;-76
2023/06/15 03:05:24;;;;;;;4.13;3.83;;;17.90;88.90;;;;;;5072585;28;20555;-77
2023/06/15 03:07:52;;;;;;;5.90;4.60;;;17.80;89.00;;;;;;5073187;28;20498;-76
2023/06/15 03:10:21;;;;;;;4.57;3.90;;;17.80;89.20;;;;;;5073070;28;20463;-78
2023/06/15 03:12:48;;;;;;;7.37;4.37;;;17.90;89.30;;;;;;5073191;28;20466;-77
2023/06/15 03:15:16;;;;;;;5.53;4.97;;;17.80;89.50;;;;;;5072380;28;20470;-77
2023/06/15 03:17:43;;;;;;;5.27;3.90;;;17.80;89.90;;;;;;5073532;28;20490;-78
2023/06/15 03:20:11;;;;;;;4.57;4.17;;;17.90;90.00;;;;;;5073590;28;20485;-78
2023/06/15 03:22:38;;;;;;;5.37;4.87;;;17.90;90.00;;;;;;5073061;28;20462;-77
2023/06/15 03:25:10;;;;;;;4.90;4.33;;;17.90;90.00;;;;;;5073420;28;21030;-78
2023/06/15 03:27:40;;;;;;;4.90;4.40;;;17.90;90.00;;;;;;5072600;28;20525;-78
2023/06/15 03:30:10;;;;;;;4.37;4.00;;;17.90;90.10;;;;;;5073598;28;20470;-77
2023/06/15 03:32:37;;;;;;;6.00;4.80;;;17.90;90.10;;;;;;5072334;28;20778;-77
2023/06/15 03:35:05;;;;;;;5.40;4.47;;;17.90;90.20;;;;;;5072684;28;20478;-77
2023/06/15 03:37:32;;;;;;;4.53;4.13;;;17.90;90.40;;;;;;5071240;28;20541;-76
2023/06/15 03:39:59;;;;;;;4.93;4.17;;;17.90;90.40;;;;;;5073289;28;20470;-76
2023/06/15 03:42:26;;;;;;;4.20;3.90;;;17.80;90.60;;;;;;5072447;28;20525;-76
2023/06/15 03:44:55;;;;;;;5.47;4.97;;;17.80;90.80;;;;;;5075974;28;20956;-77
2023/06/15 03:47:21;;;;;;;4.70;4.20;;;17.80;90.90;;;;;;5076409;28;20535;-77
2023/06/15 03:49:53;;;;;;;4.90;4.50;;;17.80;91.00;;;;;;5076370;28;20474;-77
2023/06/15 03:52:19;;;;;;;5.00;4.30;;;17.80;91.10;;;;;;5076341;28;20485;-78
2023/06/15 03:54:47;;;;;;;5.63;5.00;;;17.80;91.10;;;;;;5077257;28;20496;-77
2023/06/15 03:57:13;;;;;;;4.70;4.30;;;17.80;91.30;;;;;;5077041;28;20474;-78
2023/06/15 03:59:43;;;;;;;4.83;4.43;;;17.80;91.30;;;;;;5076825;28;20474;-78
2023/06/15 04:02:11;;;;;;;5.23;4.83;;;17.80;91.50;;;;;;5076927;28;20564;-77
2023/06/15 04:04:40;;;;;;;4.50;4.10;;;17.80;91.60;;;;;;5076552;28;20462;-77
2023/06/15 04:07:08;;;;;;;5.30;3.93;;;17.80;91.70;;;;;;5076494;28;20466;-75
2023/06/15 04:09:35;;;;;;;5.60;4.23;;;17.90;91.80;;;;;;5076198;28;20536;-75
2023/06/15 04:12:03;;;;;;;5.20;4.70;;;17.90;92.00;;;;;;5077241;28;21011;-76
2023/06/15 04:14:30;;;;;;;5.47;4.80;;;17.90;92.00;;;;;;5076659;28;20470;-75
2023/06/15 04:16:57;;;;;;;4.33;3.93;;;17.90;92.00;;;;;;5076500;28;20477;-76
2023/06/15 04:19:25;;;;;;;6.03;4.07;;;17.90;92.20;;;;;;5075942;28;20466;-76
2023/06/15 04:21:52;;;;;;;4.23;3.83;;;18.00;92.30;;;;;;5076806;28;20477;-75
2023/06/15 04:24:20;;;;;;;5.00;4.50;;;18.00;92.30;;;;;;5075847;28;20500;-77
2023/06/15 04:26:47;;;;;;;4.70;4.30;;;18.00;92.50;;;;;;5076549;28;20838;-76
2023/06/15 04:29:18;;;;;;;5.20;4.70;;;17.90;92.50;;;;;;5075991;28;20474;-77
2023/06/15 04:31:46;;;;;;;4.67;4.27;;;18.00;92.50;;;;;;5075943;28;20462;-76
2023/06/15 04:34:15;;;;;;;5.63;5.13;;;18.00;92.60;;;;;;5065123;28;20808;-77
2023/06/15 04:36:44;;;;;;;6.20;4.73;;;18.00;92.80;;;;;;5074611;28;20498;-77
2023/06/15 04:39:11;;;;;;;6.97;4.53;;;18.00;92.70;;;;;;5075619;28;20474;-76
2023/06/15 04:41:39;;;;;;;5.03;4.57;;;18.00;92.90;;;;;;5075856;28;20474;-77
2023/06/15 04:44:06;;;;;;;5.10;4.70;;;18.00;92.90;;;;;;5076427;28;20473;-77
2023/06/15 04:46:36;;;;;;;4.73;4.33;;;18.10;93.00;;;;;;5074966;28;20466;-76
2023/06/15 04:49:03;;;;;;;5.63;5.10;;;18.10;93.00;;;;;;5075720;28;20468;-76
2023/06/15 04:51:31;;;;;;;7.07;4.50;;;18.20;93.00;;;;;;5075384;28;20459;-77
2023/06/15 04:53:59;;;;;;;5.10;4.60;;;18.20;93.10;;;;;;5076091;28;20458;-77
2023/06/15 04:56:27;;;;;;;4.40;4.00;;;18.20;93.20;;;;;;5074268;28;20470;-77
2023/06/15 04:58:54;;;;;;;8.00;4.50;;;18.20;93.20;;;;;;5076213;28;20466;-76
2023/06/15 05:01:37;;;;;;;5.53;4.97;;;18.30;93.00;;;;;;5072832;28;20498;-77
2023/06/15 05:04:05;;;;;;;4.90;4.50;;;18.40;93.00;;;;;;5048188;28;20450;-77
2023/06/15 05:06:32;;;;;;;5.40;4.90;;;18.50;92.90;;;;;;5074403;28;20531;-76
2023/06/15 05:09:00;;;;;;;4.60;4.30;;;18.50;92.90;;;;;;5075336;28;20471;-76
2023/06/15 05:11:28;;;;;;;7.23;5.53;;;18.50;93.00;;;;;;5075731;28;20805;-78
2023/06/15 05:13:55;;;;;;;6.77;4.30;;;18.60;93.10;;;;;;5074208;28;20494;-78
2023/06/15 05:16:22;;;;;;;4.33;3.93;;;18.70;93.00;;;;;;5065084;28;20473;-77
2023/06/15 05:18:50;;;;;;;5.40;4.17;;;18.70;93.00;;;;;;5074507;28;20466;-77
2023/06/15 05:21:17;;;;;;;5.67;4.60;;;18.70;92.90;;;;;;5075130;28;20481;-77
2023/06/15 05:23:44;;;;;;;4.53;4.20;;;18.80;93.00;;;;;;5075503;28;20524;-78
2023/06/15 05:26:13;;;;;;;4.23;3.83;;;18.80;92.90;;;;;;5074940;28;21297;-78
2023/06/15 05:28:40;;;;;;;5.17;4.67;;;18.90;93.00;;;;;;5075525;28;20557;-78
2023/06/15 05:31:10;;;;;;;4.10;3.80;;;18.90;93.00;;;;;;5074658;28;21492;-78
2023/06/15 05:33:37;;;;;;;10.23;4.93;;;19.00;93.00;;;;;;5074748;28;20467;-78
2023/06/15 05:36:05;;;;;;;5.50;4.40;;;19.00;93.40;;;;;;5064718;28;20862;-77
2023/06/15 05:38:32;;;;;;;4.60;4.13;;;19.10;93.40;;;;;;5075760;28;20466;-77
2023/06/15 05:40:59;;;;;;;8.23;4.40;;;19.20;93.00;;;;;;5074577;28;20478;-78
2023/06/15 05:43:28;;;;;;;5.23;4.10;;;19.20;93.00;;;;;;5074935;28;20536;-76
2023/06/15 05:45:54;;;;;;;5.70;5.17;;;19.30;92.70;;;;;;5073869;28;20470;-77
2023/06/15 05:48:22;;;;;;;4.67;4.00;;;19.30;92.60;;;;;;5075227;28;20474;-77
2023/06/15 05:50:50;;;;;;;4.63;4.00;;;19.30;92.70;;;;;;5074231;28;20474;-76
2023/06/15 05:53:17;;;;;;;4.10;3.70;;;19.40;92.70;;;;;;5075219;28;20462;-77
2023/06/15 05:55:50;;;;;;;5.20;4.70;;;19.50;92.60;;;;;;5074613;28;20520;-77
2023/06/15 05:58:17;;;;;;;4.97;4.47;;;19.60;92.30;;;;;;5074043;28;20470;-78
2023/06/15 06:00:46;;;;;;;5.07;4.63;;;19.70;92.10;;;;;;5074887;28;20470;-77
2023/06/15 06:03:13;;;;;;;4.80;4.30;;;19.70;92.00;;;;;;5074643;28;20848;-77
2023/06/15 06:05:40;;;;;;;5.13;4.63;;;19.70;91.90;;;;;;5074445;28;20474;-78
2023/06/15 06:08:11;;;;;;;4.77;4.40;;;19.70;91.90;;;;;;5074008;28;20539;-77
2023/06/15 06:10:39;;;;;;;4.67;4.37;;;19.80;91.90;;;;;;5074879;28;20462;-76
2023/06/15 06:13:06;;;;;;;5.10;4.60;;;19.80;91.70;;;;;;5073384;28;20470;-76
2023/06/15 06:15:33;;;;;;;4.20;3.90;;;19.90;91.70;;;;;;5074562;28;20528;-75
2023/06/15 06:18:02;;;;;;;6.13;5.27;;;19.90;91.70;;;;;;5062692;28;20474;-76
2023/06/15 06:20:29;;;;;;;5.47;4.97;;;19.90;91.70;;;;;;5074020;28;21015;-78
2023/06/15 06:22:56;;;;;;;5.23;4.67;;;19.90;91.70;;;;;;5073073;28;20473;-76
2023/06/15 06:25:23;;;;;;;7.13;4.93;;;19.90;91.60;;;;;;5073841;28;20985;-76
2023/06/15 06:27:50;;;;;;;5.83;5.17;;;19.90;91.40;;;;;;5074294;28;20817;-77
2023/06/15 06:30:17;;;;;;;4.60;4.30;;;19.90;91.30;;;;;;5073986;28;21033;-77
2023/06/15 06:32:44;;;;;;;7.00;5.23;;;20.00;91.30;;;;;;5073950;28;20467;-78
2023/06/15 06:35:13;;;;;;;4.30;3.90;;;20.00;91.30;;;;;;5073777;28;20994;-76
2023/06/15 06:37:40;;;;;;;4.20;3.80;;;20.00;91.40;;;;;;5073958;28;20524;-75
2023/06/15 06:40:08;;;;;;;6.00;5.40;;;20.10;91.30;;;;;;5073160;28;20474;-76
2023/06/15 06:42:37;;;;;;;4.13;3.73;;;20.20;91.20;;;;;;5073813;28;20477;-76
2023/06/15 06:45:05;;;;;;;6.13;4.90;;;20.20;91.00;;;;;;5073008;28;20489;-76
2023/06/15 06:47:32;;;;;;;4.17;3.50;;;20.20;91.00;;;;;;5073736;28;20539;-76
2023/06/15 06:50:01;;;;;;;4.87;4.30;;;20.30;90.90;;;;;;5074073;28;20535;-76
2023/06/15 06:52:33;;;;;;;4.63;4.30;;;20.40;90.80;;;;;;5073468;28;20912;-77
2023/06/15 06:55:00;;;;;;;4.50;4.07;;;20.50;90.90;;;;;;5073971;28;20766;-77
2023/06/15 06:57:30;;;;;;;4.73;4.33;;;20.60;90.80;;;;;;5072573;28;20458;-77
2023/06/15 06:59:57;;;;;;;5.20;4.70;;;20.80;90.50;;;;;;5062281;28;20477;-77
2023/06/15 07:02:25;;;;;;;4.30;3.83;;;21.00;90.40;;;;;;5053010;28;20491;-76
2023/06/15 07:04:52;;;;;;;4.30;4.00;;;21.20;89.80;;;;;;5073939;28;20477;-77
2023/06/15 07:07:19;;;;;;;8.90;4.03;;;21.40;88.60;;;;;;5073465;28;20462;-78
2023/06/15 07:09:47;;;;;;;5.50;4.70;;;21.60;87.50;;;;;;5074145;28;20474;-79
2023/06/15 07:12:14;;;;;;;4.73;4.33;;;21.70;87.30;;;;;;5073795;28;20489;-77
2023/06/15 07:14:41;;;;;;;4.10;3.70;;;21.80;86.80;;;;;;5073091;28;20790;-78
2023/06/15 07:17:10;;;;;;;4.60;4.20;;;21.80;86.50;;;;;;5073282;28;20553;-78
2023/06/15 07:19:37;;;;;;;5.50;4.53;;;21.80;86.40;;;;;;5072276;28;20466;-78
2023/06/15 07:22:06;;;;;;;5.30;4.33;;;21.80;86.60;;;;;;5073687;28;20990;-78
2023/06/15 07:24:35;;;;;;;8.53;4.10;;;21.90;86.50;;;;;;5073473;28;20535;-78
2023/06/15 07:27:04;;;;;;;6.30;4.60;;;21.90;86.10;;;;;;5063401;28;20801;-78
2023/06/15 07:29:31;;;;;;;4.87;4.37;;;21.90;86.10;;;;;;5072250;28;20474;-78
2023/06/15 07:32:01;;;;;;;6.07;3.73;;;21.80;86.20;;;;;;5073154;28;20470;-76
2023/06/15 07:34:28;;;;;;;5.00;4.60;;;21.80;86.10;;;;;;5073131;28;20466;-77
2023/06/15 07:36:56;;;;;;;7.03;4.60;;;21.70;87.20;;;;;;5073133;28;20485;-77
2023/06/15 07:39:23;;;;;;;4.43;4.13;;;21.60;86.70;;;;;;5073138;28;20490;-75
2023/06/15 07:41:51;;;;;;;5.00;4.70;;;21.60;86.70;;;;;;5073417;28;20484;-79
2023/06/15 07:44:19;;;;;;;7.63;5.10;;;21.60;86.50;;;;;;5072990;28;20466;-76
2023/06/15 07:46:46;;;;;;;5.10;3.83;;;21.50;86.80;;;;;;5072212;28;20848;-76
2023/06/15 07:49:16;;;;;;;5.97;4.50;;;21.50;86.90;;;;;;5072930;28;20458;-78
2023/06/15 07:51:44;;;;;;;7.87;4.70;;;21.50;87.30;;;;;;5073233;28;20470;-77
2023/06/15 07:54:11;;;;;;;5.83;4.73;;;21.50;87.80;;;;;;5071684;28;20501;-76
2023/06/15 07:56:38;;;;;;;4.37;4.03;;;21.50;87.90;;;;;;5073932;28;20511;-78
2023/06/15 07:59:05;;;;;;;4.90;4.50;;;21.70;88.20;;;;;;5064345;28;20474;-76
2023/06/15 08:01:45;;;;;;;4.70;3.97;;;21.80;87.60;;;;;;5073212;28;20461;-79
2023/06/15 08:04:14;;;;;;;6.63;4.43;;;22.00;87.20;;;;;;5071278;28;20473;-78
2023/06/15 08:06:43;;;;;;;5.03;4.63;;;22.30;86.90;;;;;;5072267;28;20549;-77
2023/06/15 08:09:12;;;;;;;6.50;4.40;;;22.40;86.10;;;;;;5072575;28;20473;-77
2023/06/15 08:11:41;;;;;;;4.70;4.03;;;22.60;86.10;;;;;;5073556;28;20458;-76
2023/06/15 08:14:10;;;;;;;4.93;4.53;;;22.80;85.40;;;;;;5072688;28;20462;-77
2023/06/15 08:16:38;;;;;;;5.00;4.53;;;23.10;84.90;;;;;;5072792;28;20464;-77
2023/06/15 08:19:06;;;;;;;4.83;4.43;;;23.30;84.30;;;;;;5073066;28;20478;-76
2023/06/15 08:21:33;;;;;;;6.40;4.20;;;23.50;84.00;;;;;;5072149;28;20476;-76
2023/06/15 08:24:00;;;;;;;4.00;3.70;;;23.70;83.10;;;;;;5072935;28;20477;-77
2023/06/15 08:26:28;;;;;;;7.17;4.73;;;23.90;82.60;;;;;;5071954;28;20545;-76
2023/06/15 08:28:57;;;;;;;4.83;4.43;;;24.00;82.00;;;;;;5073048;28;20481;-76
2023/06/15 08:31:24;;;;;;;4.80;4.40;;;24.10;81.40;;;;;;5073649;28;20476;-77
2023/06/15 08:33:53;;;;;;;5.10;4.60;;;24.20;81.20;;;;;;5076416;28;20548;-77
2023/06/15 08:36:20;;;;;;;5.30;4.90;;;24.30;80.50;;;;;;5075627;28;20494;-76
2023/06/15 08:38:47;;;;;;;5.80;4.60;;;24.40;79.70;;;;;;5076075;28;20467;-77
2023/06/15 08:41:15;;;;;;;5.43;5.00;;;24.50;78.90;;;;;;5076392;28;20785;-76
2023/06/15 08:43:46;;;;;;;8.43;4.97;;;24.50;78.60;;;;;;5076290;28;20838;-77
2023/06/15 08:46:13;;;;;;;4.67;4.33;;;24.60;78.20;;;;;;5076168;28;20489;-76
2023/06/15 08:48:42;;;;;;;4.90;4.40;;;24.60;78.20;;;;;;5075491;28;20470;-77
2023/06/15 08:51:13;;;;;;;6.43;5.27;;;24.70;77.90;;;;;;5076002;28;20458;-76
2023/06/15 08:53:43;;;;;;;8.20;5.33;;;24.70;77.40;;;;;;5075066;28;20457;-77
2023/06/15 08:56:12;;;;;;;6.10;5.50;;;24.80;78.10;;;;;;5075632;28;20466;-76
2023/06/15 08:58:39;;;;;;;4.90;4.50;;;24.90;77.80;;;;;;5075384;28;20990;-76
2023/06/15 09:01:07;;;;;;;5.70;5.17;;;24.90;77.80;;;;;;5075983;28;20477;-77
2023/06/15 09:03:35;;;;;;;8.00;4.77;;;25.00;77.60;;;;;;5075577;28;20549;-76
2023/06/15 09:06:03;;;;;;;5.93;5.00;;;25.00;77.10;;;;;;5075609;28;20508;-77
2023/06/15 09:08:32;;;;;;;5.00;4.60;;;25.10;77.30;;;;;;5075504;28;20471;-77
2023/06/15 09:11:10;;;;;;;5.23;4.70;;;25.20;76.80;;;;;;5075846;28;20471;-77
2023/06/15 09:13:37;;;;;;;5.27;4.80;;;25.30;76.10;;;;;;5075724;28;20525;-76
2023/06/15 09:16:05;;;;;;;5.43;4.87;;;25.30;75.30;;;;;;5076177;28;20470;-78
2023/06/15 09:18:44;;;;;;;6.73;5.27;;;25.40;74.80;;;;;;5075123;28;20890;-77
2023/06/15 09:21:13;;;;;;;6.23;4.63;;;25.40;74.30;;;;;;5075662;28;20465;-77
2023/06/15 09:23:46;;;;;;;5.20;4.80;;;25.40;74.40;;;;;;5064251;28;20838;-76
2023/06/15 09:26:22;;;;;;;5.33;4.93;;;25.40;74.30;;;;;;5075771;28;20528;-77
2023/06/15 09:28:56;;;;;;;6.63;3.90;;;25.50;74.50;;;;;;5075496;28;20457;-76
2023/06/15 09:31:30;;;;;;;5.23;4.73;;;25.40;75.10;;;;;;5075666;28;20470;-76
2023/06/15 09:34:02;;;;;;;8.20;5.00;;;25.40;74.00;;;;;;5073735;28;20457;-77
2023/06/15 09:36:35;;;;;;;5.47;5.00;;;25.30;74.30;;;;;;5074559;28;20505;-76
2023/06/15 09:39:05;;;;;;;7.60;5.07;;;25.20;74.00;;;;;;5074614;28;20472;-77
2023/06/15 09:41:32;;;;;;;12.70;5.03;;;25.20;74.30;;;;;;5075148;28;20549;-77
2023/06/15 09:44:03;;;;;;;5.47;4.97;;;25.20;74.60;;;;;;5074232;28;20458;-77
2023/06/15 09:46:31;;;;;;;10.73;5.67;;;25.10;74.70;;;;;;5074712;28;20482;-76
2023/06/15 09:48:58;;;;;;;8.07;5.03;;;25.00;73.90;;;;;;5073761;28;20676;-76
2023/06/15 09:51:28;;;;;;;5.43;4.70;;;25.00;72.10;;;;;;5075690;28;20777;-78
2023/06/15 09:53:59;;;;;;;8.03;5.73;;;24.90;70.50;;;;;;5074538;28;20466;-76
2023/06/15 09:56:29;;;;;;;5.50;5.03;;;24.80;69.50;;;;;;5074514;28;20585;-77
2023/06/15 09:59:02;;;;;;;5.70;5.10;;;24.80;69.90;;;;;;5073988;28;20504;-77
2023/06/15 10:01:30;;;;;;;8.07;5.57;;;24.80;70.60;;;;;;5074943;28;20473;-77
2023/06/15 10:03:58;;;;;;;6.13;5.63;;;24.60;70.50;;;;;;5073973;28;20466;-77
2023/06/15 10:06:27;;;;;;;5.37;4.97;;;24.60;70.90;;;;;;5074342;28;20466;-77
2023/06/15 10:08:57;;;;;;;5.27;4.87;;;24.60;71.60;;;;;;5074131;28;20863;-76
2023/06/15 10:11:26;;;;;;;8.33;5.60;;;24.60;72.00;;;;;;5074698;28;20781;-78
2023/06/15 10:13:58;;;;;;;7.80;5.40;;;24.60;72.10;;;;;;5074038;28;20614;-78
2023/06/15 10:16:27;;;;;;;7.30;6.60;;;24.60;72.50;;;;;;5073749;28;20466;-76
2023/06/15 10:19:01;;;;;;;5.97;5.37;;;24.60;72.20;;;;;;5073583;28;20604;-77
2023/06/15 10:21:31;;;;;;;7.60;5.27;;;24.60;72.00;;;;;;5074547;28;20463;-78
2023/06/15 10:24:03;;;;;;;5.23;4.77;;;24.50;71.30;;;;;;5073125;28;20466;-77
2023/06/15 10:26:32;;;;;;;7.47;5.33;;;24.50;71.10;;;;;;5074228;28;20786;-76
2023/06/15 10:29:08;;;;;;;5.00;4.50;;;24.40;70.60;;;;;;5073539;28;20466;-76
2023/06/15 10:31:45;;;;;;;4.90;4.60;;;24.30;69.90;;;;;;5073995;28;20553;-77
2023/06/15 10:34:19;;;;;;;6.83;4.40;;;24.30;68.80;;;;;;5073563;28;20450;-77
2023/06/15 10:36:56;;;;;;;6.63;5.07;;;24.20;67.80;;;;;;5073954;28;20469;-78
2023/06/15 10:39:28;;;;;;;8.40;4.73;;;24.20;67.30;;;;;;5074682;28;20860;-76
2023/06/15 10:41:57;;;;;;;4.47;4.07;;;24.10;65.70;;;;;;5073730;28;20454;-75
2023/06/15 10:44:32;;;;;;;3.97;3.67;;;24.00;65.30;;;;;;5073719;28;20462;-76
2023/06/15 10:47:10;;;;;;;5.03;4.53;;;24.00;65.50;;;;;;5072818;28;20842;-77
2023/06/15 10:49:40;;;;;;;5.37;4.40;;;24.00;66.00;;;;;;5073246;28;20488;-77
2023/06/15 10:52:07;;;;;;;4.97;4.33;;;24.00;66.70;;;;;;5073710;28;20463;-76
2023/06/15 10:54:37;;;;;;;9.23;5.53;;;23.90;67.80;;;;;;5072939;28;20458;-76
2023/06/15 10:57:07;;;;;;;6.70;4.70;;;23.90;68.10;;;;;;5073572;28;20887;-77
2023/06/15 10:59:42;;;;;;;4.90;4.10;;;23.80;68.00;;;;;;5074052;28;20808;-77
2023/06/15 11:02:46;;;;;;;6.13;4.80;;;23.70;66.90;;;;;;5073120;28;20481;-78
2023/06/15 11:05:19;;;;;;;5.00;4.50;;;23.70;67.10;;;;;;5072651;28;20515;-76
2023/06/15 11:07:50;;;;;;;4.20;3.90;;;23.70;66.80;;;;;;5073515;28;20966;-76
2023/06/15 11:10:21;;;;;;;5.23;4.67;;;23.70;66.70;;;;;;5072903;28;20473;-77
2023/06/15 11:13:04;;;;;;;6.07;4.60;;;23.60;66.80;;;;;;5073781;28;20473;-77
2023/06/15 11:15:37;;;;;;;5.70;3.70;;;23.60;67.10;;;;;;5074067;28;20523;-78
2023/06/15 11:18:06;;;;;;;5.00;3.80;;;23.60;67.30;;;;;;5073076;28;20491;-76
2023/06/15 11:20:44;;;;;;;4.50;4.17;;;23.60;67.30;;;;;;5073038;28;20473;-76
2023/06/15 11:23:14;;;;;;;6.40;4.03;;;23.60;66.80;;;;;;5073795;28;20520;-78
2023/06/15 11:25:45;;;;;;;5.07;4.57;;;23.60;67.20;;;;;;5074648;28;20960;-77
2023/06/15 11:28:14;;;;;;;4.40;4.00;;;23.50;67.70;;;;;;5062808;28;20496;-79
2023/06/15 11:30:43;;;;;;;6.33;5.73;;;23.60;68.10;;;;;;5077024;28;20857;-77
2023/06/15 11:33:12;;;;;;;6.47;5.87;;;23.60;68.60;;;;;;5074457;28;20446;-75
2023/06/15 11:35:39;;;;;;;5.60;5.10;;;23.60;69.10;;;;;;5073156;28;20976;-78
2023/06/15 11:38:07;;;;;;;4.73;4.33;;;23.70;69.20;;;;;;5072916;28;20478;-77
2023/06/15 11:40:34;;;;;;;4.67;4.23;;;23.80;69.10;;;;;;5073423;28;20471;-77
2023/06/15 11:43:04;;;;;;;4.93;4.43;;;23.80;68.70;;;;;;5073491;28;20495;-78
2023/06/15 11:45:32;;;;;;;5.23;4.33;;;23.80;68.40;;;;;;5073185;28;20475;-78
2023/06/15 11:48:00;;;;;;;7.50;4.07;;;23.90;67.90;;;;;;5071272;28;20481;-77
2023/06/15 11:50:28;;;;;;;6.03;4.10;;;23.90;66.50;;;;;;5073144;28;20967;-77
2023/06/15 11:52:55;;;;;;;6.73;3.90;;;23.90;66.10;;;;;;5072894;28;20458;-78
2023/06/15 11:55:22;;;;;;;4.80;4.47;;;23.80;65.50;;;;;;5073116;28;20489;-77
2023/06/15 11:57:49;;;;;;;4.70;4.30;;;23.80;65.90;;;;;;5073407;28;20952;-76
2023/06/15 12:00:17;;;;;;;3.80;3.50;;;23.80;66.00;;;;;;5071994;28;20465;-77
2023/06/15 12:02:44;;;;;;;5.03;4.20;;;23.80;66.40;;;;;;5073785;28;20471;-77
2023/06/15 12:05:13;;;;;;;6.70;3.87;;;23.80;67.40;;;;;;5073320;28;20481;-77
2023/06/15 12:07:40;;;;;;;5.50;4.60;;;23.90;68.20;;;;;;5077192;28;20467;-77
2023/06/15 12:10:17;;;;;;;6.03;4.80;;;23.90;68.40;;;;;;5077085;28;20804;-77
2023/06/15 12:12:48;;;;;;;4.97;4.60;;;24.00;68.00;;;;;;5067515;28;20474;-76
2023/06/15 12:15:20;;;;;;;4.77;4.33;;;24.00;67.70;;;;;;5075053;28;20478;-76
2023/06/15 12:17:49;;;;;;;7.00;4.60;;;24.10;67.70;;;;;;5076354;28;20575;-77
2023/06/15 12:20:19;;;;;;;4.77;4.30;;;24.20;66.70;;;;;;5076260;28;20545;-78
2023/06/15 12:22:47;;;;;;;9.97;6.30;;;24.40;65.90;;;;;;5073351;28;20474;-76
2023/06/15 12:25:15;;;;;;;5.50;5.00;;;24.50;65.60;;;;;;5068501;28;20942;-76
2023/06/15 12:27:44;;;;;;;5.80;5.20;;;24.50;63.70;;;;;;5071559;28;20585;-78
2023/06/15 12:30:13;;;;;;;4.47;4.07;;;24.50;63.50;;;;;;5074774;28;20675;-77
2023/06/15 12:32:44;;;;;;;4.43;4.07;;;24.60;63.40;;;;;;5065581;28;20532;-76
2023/06/15 12:35:37;;;;;;;5.30;4.40;;;24.60;63.00;;;;;;5056313;28;20481;-77
2023/06/15 12:38:07;;;;;;;6.60;4.17;;;24.70;62.80;;;;;;5044943;28;20467;-77
2023/06/15 12:40:52;;;;;;;6.83;6.00;;;24.60;62.90;;;;;;5078439;28;20455;-77
2023/06/15 12:44:15;;;;;;;7.93;5.37;;;24.60;63.10;;;;;;5063178;28;20474;-77
2023/06/15 12:46:43;;;;;;;6.00;4.63;;;24.60;63.00;;;;;;5075762;28;20574;-77
2023/06/15 12:49:16;;;;;;;5.27;3.90;;;24.50;62.30;;;;;;5075475;28;20545;-76
2023/06/15 12:51:47;;;;;;;5.70;4.03;;;24.50;62.50;;;;;;5076449;28;21021;-77
2023/06/15 12:54:14;;;;;;;4.93;4.47;;;24.40;63.00;;;;;;5076439;28;20456;-77
2023/06/15 12:56:41;;;;;;;5.77;3.83;;;24.40;63.10;;;;;;5082554;28;20931;-77